sensor_id;sensor_type;location;lat;lon;timestamp;pressure;altitude;pressure_sealevel;temperature
73894;BMP280;62699;50.534;12.784;2023-12-22T00:03:50;94049.53;;;3.09
73894;BMP280;62699;50.534;12.784;2023-12-22T00:09:19;94049.28;;;3.13
73894;BMP280;62699;50.534;12.784;2023-12-22T00:14:43;94043.97;;;3.13
73894;BMP280;62699;50.534;12.784;2023-12-22T00:20:05;94073.16;;;3.18
73894;BMP280;62699;50.534;12.784;2023-12-22T00:25:36;94068.38;;;3.11
73894;BMP280;62699;50.534;12.784;2023-12-22T00:30:46;94079.47;;;3.15
73894;BMP280;62699;50.534;12.784;2023-12-22T00:36:09;94074.59;;;3.19
73894;BMP280;62699;50.534;12.784;2023-12-22T00:41:32;94080.59;;;3.25
73894;BMP280;62699;50.534;12.784;2023-12-22T00:46:50;94065.84;;;3.24
73894;BMP280;62699;50.534;12.784;2023-12-22T00:51:57;94070.97;;;3.22
73894;BMP280;62699;50.534;12.784;2023-12-22T00:57:06;94092.16;;;3.28
73894;BMP280;62699;50.534;12.784;2023-12-22T01:02:20;94098.97;;;3.23
73894;BMP280;62699;50.534;12.784;2023-12-22T01:07:49;94092.66;;;3.26
73894;BMP280;62699;50.534;12.784;2023-12-22T01:13:13;94085.91;;;3.25
73894;BMP280;62699;50.534;12.784;2023-12-22T01:18:35;94108.38;;;3.24
73894;BMP280;62699;50.534;12.784;2023-12-22T01:23:59;94120.97;;;3.24
73894;BMP280;62699;50.534;12.784;2023-12-22T01:29:11;94116.88;;;3.17
73894;BMP280;62699;50.534;12.784;2023-12-22T01:34:13;94123.88;;;3.20
73894;BMP280;62699;50.534;12.784;2023-12-22T01:40:02;94119.34;;;3.15
73894;BMP280;62699;50.534;12.784;2023-12-22T01:45:18;94128.81;;;2.99
73894;BMP280;62699;50.534;12.784;2023-12-22T01:50:37;94124.31;;;2.89
73894;BMP280;62699;50.534;12.784;2023-12-22T01:56:07;94126.00;;;2.92
73894;BMP280;62699;50.534;12.784;2023-12-22T02:01:14;94115.78;;;2.96
73894;BMP280;62699;50.534;12.784;2023-12-22T02:06:41;94107.16;;;2.90
73894;BMP280;62699;50.534;12.784;2023-12-22T02:11:46;94093.63;;;2.88
73894;BMP280;62699;50.534;12.784;2023-12-22T02:17:18;94094.63;;;2.85
73894;BMP280;62699;50.534;12.784;2023-12-22T02:22:41;94104.50;;;2.90
73894;BMP280;62699;50.534;12.784;2023-12-22T02:28:18;94081.03;;;2.94
73894;BMP280;62699;50.534;12.784;2023-12-22T02:33:33;94102.50;;;3.01
73894;BMP280;62699;50.534;12.784;2023-12-22T02:38:58;94105.09;;;3.07
73894;BMP280;62699;50.534;12.784;2023-12-22T02:44:19;94086.22;;;3.16
73894;BMP280;62699;50.534;12.784;2023-12-22T02:49:28;94095.63;;;3.17
73894;BMP280;62699;50.534;12.784;2023-12-22T02:54:37;94086.50;;;3.13
73894;BMP280;62699;50.534;12.784;2023-12-22T02:59:49;94091.81;;;3.13
73894;BMP280;62699;50.534;12.784;2023-12-22T03:05:38;94103.56;;;3.23
73894;BMP280;62699;50.534;12.784;2023-12-22T03:10:45;94101.63;;;3.23
73894;BMP280;62699;50.534;12.784;2023-12-22T03:16:00;94088.78;;;3.27
73894;BMP280;62699;50.534;12.784;2023-12-22T03:21:21;94065.97;;;3.43
73894;BMP280;62699;50.534;12.784;2023-12-22T03:26:26;94075.16;;;3.42
73894;BMP280;62699;50.534;12.784;2023-12-22T03:31:38;94080.28;;;3.34
73894;BMP280;62699;50.534;12.784;2023-12-22T03:36:53;94057.34;;;3.31
73894;BMP280;62699;50.534;12.784;2023-12-22T03:42:43;94048.69;;;3.25
73894;BMP280;62699;50.534;12.784;2023-12-22T03:48:05;94035.69;;;3.22
73894;BMP280;62699;50.534;12.784;2023-12-22T03:53:37;94037.88;;;3.18
73894;BMP280;62699;50.534;12.784;2023-12-22T03:59:28;94085.28;;;3.08
73894;BMP280;62699;50.534;12.784;2023-12-22T04:04:42;94074.88;;;2.75
73894;BMP280;62699;50.534;12.784;2023-12-22T04:10:07;94080.22;;;2.63
73894;BMP280;62699;50.534;12.784;2023-12-22T04:15:13;94093.84;;;2.43
73894;BMP280;62699;50.534;12.784;2023-12-22T04:25:51;94093.13;;;2.37
73894;BMP280;62699;50.534;12.784;2023-12-22T04:31:07;94103.97;;;2.39
73894;BMP280;62699;50.534;12.784;2023-12-22T04:41:45;94118.94;;;2.42
73894;BMP280;62699;50.534;12.784;2023-12-22T04:47:06;94104.66;;;2.45
73894;BMP280;62699;50.534;12.784;2023-12-22T04:52:30;94120.13;;;2.41
73894;BMP280;62699;50.534;12.784;2023-12-22T05:02:59;94107.81;;;2.49
73894;BMP280;62699;50.534;12.784;2023-12-22T05:08:02;94102.25;;;2.47
73894;BMP280;62699;50.534;12.784;2023-12-22T05:13:28;94111.44;;;2.41
73894;BMP280;62699;50.534;12.784;2023-12-22T05:19:15;94119.00;;;2.20
73894;BMP280;62699;50.534;12.784;2023-12-22T05:24:22;94152.06;;;1.91
73894;BMP280;62699;50.534;12.784;2023-12-22T05:29:28;94150.88;;;1.75
73894;BMP280;62699;50.534;12.784;2023-12-22T05:34:52;94137.34;;;1.73
73894;BMP280;62699;50.534;12.784;2023-12-22T05:40:03;94136.16;;;1.74
73894;BMP280;62699;50.534;12.784;2023-12-22T05:50:40;94143.66;;;1.81
73894;BMP280;62699;50.534;12.784;2023-12-22T05:55:43;94141.94;;;1.84
73894;BMP280;62699;50.534;12.784;2023-12-22T06:00:49;94147.00;;;1.87
73894;BMP280;62699;50.534;12.784;2023-12-22T06:06:11;94150.34;;;1.94
73894;BMP280;62699;50.534;12.784;2023-12-22T06:11:25;94141.19;;;2.06
73894;BMP280;62699;50.534;12.784;2023-12-22T06:16:57;94135.16;;;2.05
73894;BMP280;62699;50.534;12.784;2023-12-22T06:22:39;94154.69;;;2.19
73894;BMP280;62699;50.534;12.784;2023-12-22T06:27:48;94179.56;;;2.21
73894;BMP280;62699;50.534;12.784;2023-12-22T06:33:09;94174.25;;;2.16
73894;BMP280;62699;50.534;12.784;2023-12-22T06:38:23;94149.91;;;2.12
73894;BMP280;62699;50.534;12.784;2023-12-22T06:44:06;94136.38;;;2.10
73894;BMP280;62699;50.534;12.784;2023-12-22T06:49:12;94125.03;;;2.04
73894;BMP280;62699;50.534;12.784;2023-12-22T06:54:30;94118.53;;;2.10
73894;BMP280;62699;50.534;12.784;2023-12-22T06:59:51;94124.31;;;2.14
73894;BMP280;62699;50.534;12.784;2023-12-22T07:10:35;94116.59;;;2.22
73894;BMP280;62699;50.534;12.784;2023-12-22T07:15:45;94099.94;;;2.21
73894;BMP280;62699;50.534;12.784;2023-12-22T07:20:49;94132.78;;;2.13
73894;BMP280;62699;50.534;12.784;2023-12-22T07:26:22;94138.34;;;1.81
73894;BMP280;62699;50.534;12.784;2023-12-22T07:31:44;94139.53;;;1.75
73894;BMP280;62699;50.534;12.784;2023-12-22T07:36:48;94138.81;;;1.69
73894;BMP280;62699;50.534;12.784;2023-12-22T07:41:48;94129.16;;;1.88
73894;BMP280;62699;50.534;12.784;2023-12-22T07:52:23;94142.88;;;2.09
73894;BMP280;62699;50.534;12.784;2023-12-22T07:57:54;94178.56;;;2.30
73894;BMP280;62699;50.534;12.784;2023-12-22T08:02:57;94224.84;;;2.57
73894;BMP280;62699;50.534;12.784;2023-12-22T08:08:07;94246.84;;;2.63
73894;BMP280;62699;50.534;12.784;2023-12-22T08:13:24;94253.59;;;2.58
73894;BMP280;62699;50.534;12.784;2023-12-22T08:18:57;94250.69;;;2.62
73894;BMP280;62699;50.534;12.784;2023-12-22T08:24:03;94239.31;;;2.73
73894;BMP280;62699;50.534;12.784;2023-12-22T08:29:20;94253.78;;;2.72
73894;BMP280;62699;50.534;12.784;2023-12-22T08:34:26;94256.69;;;2.68
73894;BMP280;62699;50.534;12.784;2023-12-22T08:39:34;94255.50;;;2.75
73894;BMP280;62699;50.534;12.784;2023-12-22T08:44:37;94231.84;;;2.54
73894;BMP280;62699;50.534;12.784;2023-12-22T08:49:38;94227.28;;;2.38
73894;BMP280;62699;50.534;12.784;2023-12-22T08:54:49;94244.44;;;2.32
73894;BMP280;62699;50.534;12.784;2023-12-22T09:00:18;94242.72;;;2.34
73894;BMP280;62699;50.534;12.784;2023-12-22T09:05:51;94261.34;;;2.17
73894;BMP280;62699;50.534;12.784;2023-12-22T09:11:16;94268.78;;;1.85
73894;BMP280;62699;50.534;12.784;2023-12-22T09:16:40;94272.59;;;1.73
73894;BMP280;62699;50.534;12.784;2023-12-22T09:21:41;94294.31;;;1.77
73894;BMP280;62699;50.534;12.784;2023-12-22T09:26:47;94316.75;;;1.76
73894;BMP280;62699;50.534;12.784;2023-12-22T09:31:58;94316.69;;;1.65
73894;BMP280;62699;50.534;12.784;2023-12-22T09:37:23;94307.28;;;1.59
73894;BMP280;62699;50.534;12.784;2023-12-22T09:42:33;94327.81;;;1.75
73894;BMP280;62699;50.534;12.784;2023-12-22T09:53:16;94328.88;;;2.11
73894;BMP280;62699;50.534;12.784;2023-12-22T09:58:17;94350.88;;;2.22
73894;BMP280;62699;50.534;12.784;2023-12-22T10:04:37;94356.88;;;2.34
73894;BMP280;62699;50.534;12.784;2023-12-22T10:10:07;94335.19;;;2.52
73894;BMP280;62699;50.534;12.784;2023-12-22T10:15:32;94319.25;;;2.63
73894;BMP280;62699;50.534;12.784;2023-12-22T10:20:34;94334.66;;;2.87
73894;BMP280;62699;50.534;12.784;2023-12-22T10:25:35;94328.84;;;3.00
73894;BMP280;62699;50.534;12.784;2023-12-22T10:30:35;94340.59;;;3.38
73894;BMP280;62699;50.534;12.784;2023-12-22T10:35:36;94337.88;;;3.55
73894;BMP280;62699;50.534;12.784;2023-12-22T10:40:37;94336.47;;;3.42
73894;BMP280;62699;50.534;12.784;2023-12-22T10:45:37;94343.47;;;3.40
73894;BMP280;62699;50.534;12.784;2023-12-22T10:50:39;94334.28;;;3.47
73894;BMP280;62699;50.534;12.784;2023-12-22T10:55:40;94350.97;;;3.41
73894;BMP280;62699;50.534;12.784;2023-12-22T11:00:41;94347.13;;;3.42
73894;BMP280;62699;50.534;12.784;2023-12-22T11:05:46;94348.28;;;3.47
73894;BMP280;62699;50.534;12.784;2023-12-22T11:10:52;94358.47;;;3.43
73894;BMP280;62699;50.534;12.784;2023-12-22T11:15:56;94353.63;;;3.36
73894;BMP280;62699;50.534;12.784;2023-12-22T11:20:57;94335.53;;;3.34
73894;BMP280;62699;50.534;12.784;2023-12-22T11:25:58;94337.66;;;3.47
73894;BMP280;62699;50.534;12.784;2023-12-22T11:30:59;94315.44;;;3.45
73894;BMP280;62699;50.534;12.784;2023-12-22T11:36:01;94300.44;;;3.41
73894;BMP280;62699;50.534;12.784;2023-12-22T11:41:02;94305.03;;;3.47
73894;BMP280;62699;50.534;12.784;2023-12-22T11:46:03;94312.00;;;3.50
73894;BMP280;62699;50.534;12.784;2023-12-22T11:51:21;94320.03;;;3.44
73894;BMP280;62699;50.534;12.784;2023-12-22T11:56:24;94305.06;;;3.35
73894;BMP280;62699;50.534;12.784;2023-12-22T12:01:25;94295.63;;;3.40
73894;BMP280;62699;50.534;12.784;2023-12-22T12:17:08;94256.00;;;3.31
73894;BMP280;62699;50.534;12.784;2023-12-22T12:22:08;94249.50;;;3.26
73894;BMP280;62699;50.534;12.784;2023-12-22T12:27:09;94237.88;;;3.29
73894;BMP280;62699;50.534;12.784;2023-12-22T12:32:13;94226.81;;;3.25
73894;BMP280;62699;50.534;12.784;2023-12-22T12:37:14;94221.47;;;3.25
73894;BMP280;62699;50.534;12.784;2023-12-22T12:42:15;94203.09;;;3.27
73894;BMP280;62699;50.534;12.784;2023-12-22T12:47:15;94206.72;;;3.30
73894;BMP280;62699;50.534;12.784;2023-12-22T12:52:16;94203.53;;;3.42
73894;BMP280;62699;50.534;12.784;2023-12-22T12:57:17;94219.28;;;3.35
73894;BMP280;62699;50.534;12.784;2023-12-22T13:02:18;94230.41;;;3.28
73894;BMP280;62699;50.534;12.784;2023-12-22T13:07:25;94240.56;;;3.24
73894;BMP280;62699;50.534;12.784;2023-12-22T13:12:26;94227.97;;;3.30
73894;BMP280;62699;50.534;12.784;2023-12-22T13:17:26;94223.91;;;3.23
73894;BMP280;62699;50.534;12.784;2023-12-22T13:22:26;94229.19;;;3.29
73894;BMP280;62699;50.534;12.784;2023-12-22T13:27:26;94228.47;;;3.34
73894;BMP280;62699;50.534;12.784;2023-12-22T13:32:27;94251.09;;;3.46
73894;BMP280;62699;50.534;12.784;2023-12-22T13:37:27;94246.97;;;3.51
73894;BMP280;62699;50.534;12.784;2023-12-22T13:42:30;94220.56;;;3.64
73894;BMP280;62699;50.534;12.784;2023-12-22T13:47:31;94224.94;;;3.56
73894;BMP280;62699;50.534;12.784;2023-12-22T13:52:31;94225.88;;;3.64
73894;BMP280;62699;50.534;12.784;2023-12-22T13:57:38;94201.94;;;3.64
73894;BMP280;62699;50.534;12.784;2023-12-22T14:02:39;94209.44;;;3.65
73894;BMP280;62699;50.534;12.784;2023-12-22T14:07:39;94203.50;;;3.78
73894;BMP280;62699;50.534;12.784;2023-12-22T14:12:40;94212.53;;;3.69
73894;BMP280;62699;50.534;12.784;2023-12-22T14:17:41;94212.94;;;3.79
73894;BMP280;62699;50.534;12.784;2023-12-22T14:22:42;94213.84;;;3.87
73894;BMP280;62699;50.534;12.784;2023-12-22T14:27:42;94221.31;;;3.94
73894;BMP280;62699;50.534;12.784;2023-12-22T14:32:43;94219.41;;;3.89
73894;BMP280;62699;50.534;12.784;2023-12-22T14:37:43;94215.28;;;3.88
73894;BMP280;62699;50.534;12.784;2023-12-22T14:42:45;94214.75;;;3.95
73894;BMP280;62699;50.534;12.784;2023-12-22T14:47:45;94223.41;;;4.01
73894;BMP280;62699;50.534;12.784;2023-12-22T14:52:46;94229.19;;;4.05
73894;BMP280;62699;50.534;12.784;2023-12-22T14:57:46;94232.53;;;4.11
73894;BMP280;62699;50.534;12.784;2023-12-22T15:02:46;94221.66;;;4.09
73894;BMP280;62699;50.534;12.784;2023-12-22T15:07:46;94226.22;;;4.14
73894;BMP280;62699;50.534;12.784;2023-12-22T15:12:47;94234.44;;;4.16
73894;BMP280;62699;50.534;12.784;2023-12-22T15:17:48;94229.81;;;4.17
73894;BMP280;62699;50.534;12.784;2023-12-22T15:22:49;94235.34;;;4.25
73894;BMP280;62699;50.534;12.784;2023-12-22T15:27:49;94218.88;;;4.26
73894;BMP280;62699;50.534;12.784;2023-12-22T15:32:49;94230.72;;;4.25
73894;BMP280;62699;50.534;12.784;2023-12-22T15:37:49;94221.06;;;4.22
73894;BMP280;62699;50.534;12.784;2023-12-22T15:42:51;94221.28;;;4.24
73894;BMP280;62699;50.534;12.784;2023-12-22T15:47:51;94220.25;;;4.33
73894;BMP280;62699;50.534;12.784;2023-12-22T15:52:51;94226.22;;;4.14
73894;BMP280;62699;50.534;12.784;2023-12-22T15:57:51;94224.31;;;4.09
73894;BMP280;62699;50.534;12.784;2023-12-22T16:02:52;94227.94;;;4.12
73894;BMP280;62699;50.534;12.784;2023-12-22T16:07:52;94223.88;;;4.05
73894;BMP280;62699;50.534;12.784;2023-12-22T16:12:52;94214.31;;;3.91
73894;BMP280;62699;50.534;12.784;2023-12-22T16:17:53;94212.88;;;3.90
73894;BMP280;62699;50.534;12.784;2023-12-22T16:22:53;94197.97;;;3.76
73894;BMP280;62699;50.534;12.784;2023-12-22T16:27:53;94198.28;;;3.67
73894;BMP280;62699;50.534;12.784;2023-12-22T16:32:53;94199.06;;;3.56
73894;BMP280;62699;50.534;12.784;2023-12-22T16:37:53;94197.84;;;3.57
73894;BMP280;62699;50.534;12.784;2023-12-22T16:42:54;94190.34;;;3.61
73894;BMP280;62699;50.534;12.784;2023-12-22T16:47:54;94197.44;;;3.48
73894;BMP280;62699;50.534;12.784;2023-12-22T16:52:54;94199.94;;;3.29
73894;BMP280;62699;50.534;12.784;2023-12-22T16:57:55;94197.19;;;3.04
73894;BMP280;62699;50.534;12.784;2023-12-22T17:02:55;94183.50;;;2.78
73894;BMP280;62699;50.534;12.784;2023-12-22T17:07:55;94194.94;;;2.62
73894;BMP280;62699;50.534;12.784;2023-12-22T17:12:55;94190.13;;;2.49
73894;BMP280;62699;50.534;12.784;2023-12-22T17:17:56;94188.19;;;2.44
73894;BMP280;62699;50.534;12.784;2023-12-22T17:22:56;94196.41;;;2.41
73894;BMP280;62699;50.534;12.784;2023-12-22T17:27:56;94172.75;;;2.37
73894;BMP280;62699;50.534;12.784;2023-12-22T17:32:57;94178.78;;;2.43
73894;BMP280;62699;50.534;12.784;2023-12-22T17:37:57;94191.53;;;2.56
73894;BMP280;62699;50.534;12.784;2023-12-22T17:42:58;94170.50;;;2.63
73894;BMP280;62699;50.534;12.784;2023-12-22T17:47:58;94165.38;;;2.77
73894;BMP280;62699;50.534;12.784;2023-12-22T17:52:58;94155.94;;;2.92
73894;BMP280;62699;50.534;12.784;2023-12-22T17:57:59;94161.50;;;2.89
73894;BMP280;62699;50.534;12.784;2023-12-22T18:02:59;94155.44;;;2.94
73894;BMP280;62699;50.534;12.784;2023-12-22T18:07:59;94156.59;;;3.04
73894;BMP280;62699;50.534;12.784;2023-12-22T18:12:59;94155.63;;;3.01
73894;BMP280;62699;50.534;12.784;2023-12-22T18:18:00;94155.59;;;3.07
73894;BMP280;62699;50.534;12.784;2023-12-22T18:23:00;94159.47;;;3.12
73894;BMP280;62699;50.534;12.784;2023-12-22T18:28:01;94165.94;;;3.22
73894;BMP280;62699;50.534;12.784;2023-12-22T18:33:01;94153.72;;;3.37
73894;BMP280;62699;50.534;12.784;2023-12-22T18:38:01;94179.59;;;3.42
73894;BMP280;62699;50.534;12.784;2023-12-22T18:43:02;94184.59;;;3.52
73894;BMP280;62699;50.534;12.784;2023-12-22T18:48:03;94198.13;;;3.54
73894;BMP280;62699;50.534;12.784;2023-12-22T18:53:04;94187.41;;;3.65
73894;BMP280;62699;50.534;12.784;2023-12-22T18:58:06;94201.84;;;3.75
73894;BMP280;62699;50.534;12.784;2023-12-22T19:03:06;94181.91;;;3.87
73894;BMP280;62699;50.534;12.784;2023-12-22T19:08:06;94215.47;;;3.96
73894;BMP280;62699;50.534;12.784;2023-12-22T19:13:07;94216.81;;;4.08
73894;BMP280;62699;50.534;12.784;2023-12-22T19:18:07;94218.00;;;4.12
73894;BMP280;62699;50.534;12.784;2023-12-22T19:23:08;94187.94;;;4.17
73894;BMP280;62699;50.534;12.784;2023-12-22T19:28:08;94196.44;;;4.16
73894;BMP280;62699;50.534;12.784;2023-12-22T19:33:08;94207.25;;;4.23
73894;BMP280;62699;50.534;12.784;2023-12-22T19:38:09;94235.81;;;4.23
73894;BMP280;62699;50.534;12.784;2023-12-22T19:43:10;94243.81;;;4.23
73894;BMP280;62699;50.534;12.784;2023-12-22T19:48:10;94237.75;;;4.22
73894;BMP280;62699;50.534;12.784;2023-12-22T19:53:11;94242.81;;;4.26
73894;BMP280;62699;50.534;12.784;2023-12-22T19:58:11;94258.59;;;4.18
73894;BMP280;62699;50.534;12.784;2023-12-22T20:03:12;94266.38;;;4.16
73894;BMP280;62699;50.534;12.784;2023-12-22T20:08:12;94251.41;;;4.13
73894;BMP280;62699;50.534;12.784;2023-12-22T20:13:12;94263.91;;;4.18
73894;BMP280;62699;50.534;12.784;2023-12-22T20:18:15;94279.91;;;4.18
73894;BMP280;62699;50.534;12.784;2023-12-22T20:23:15;94278.03;;;4.13
73894;BMP280;62699;50.534;12.784;2023-12-22T20:28:15;94288.13;;;4.20
73894;BMP280;62699;50.534;12.784;2023-12-22T20:33:17;94277.44;;;4.26
73894;BMP280;62699;50.534;12.784;2023-12-22T20:38:17;94271.84;;;4.30
73894;BMP280;62699;50.534;12.784;2023-12-22T20:43:17;94292.53;;;4.42
73894;BMP280;62699;50.534;12.784;2023-12-22T20:48:18;94301.09;;;4.35
73894;BMP280;62699;50.534;12.784;2023-12-22T20:53:18;94289.25;;;4.36
73894;BMP280;62699;50.534;12.784;2023-12-22T20:58:18;94281.41;;;4.44
73894;BMP280;62699;50.534;12.784;2023-12-22T21:03:19;94273.78;;;4.29
73894;BMP280;62699;50.534;12.784;2023-12-22T21:08:20;94301.66;;;4.22
73894;BMP280;62699;50.534;12.784;2023-12-22T21:13:20;94297.31;;;4.19
73894;BMP280;62699;50.534;12.784;2023-12-22T21:18:20;94291.53;;;4.15
73894;BMP280;62699;50.534;12.784;2023-12-22T21:23:22;94311.63;;;4.16
73894;BMP280;62699;50.534;12.784;2023-12-22T21:28:24;94336.22;;;3.46
73894;BMP280;62699;50.534;12.784;2023-12-22T21:33:25;94331.56;;;2.61
73894;BMP280;62699;50.534;12.784;2023-12-22T21:38:25;94334.22;;;2.22
73894;BMP280;62699;50.534;12.784;2023-12-22T21:43:25;94341.59;;;1.90
73894;BMP280;62699;50.534;12.784;2023-12-22T21:48:25;94346.38;;;1.69
73894;BMP280;62699;50.534;12.784;2023-12-22T21:53:26;94358.13;;;1.57
73894;BMP280;62699;50.534;12.784;2023-12-22T21:58:26;94360.53;;;1.55
73894;BMP280;62699;50.534;12.784;2023-12-22T22:03:28;94368.19;;;1.42
73894;BMP280;62699;50.534;12.784;2023-12-22T22:08:28;94391.00;;;1.34
73894;BMP280;62699;50.534;12.784;2023-12-22T22:13:28;94383.78;;;1.29
73894;BMP280;62699;50.534;12.784;2023-12-22T22:18:29;94413.88;;;1.26
73894;BMP280;62699;50.534;12.784;2023-12-22T22:23:29;94431.88;;;1.16
73894;BMP280;62699;50.534;12.784;2023-12-22T22:28:30;94424.66;;;1.17
73894;BMP280;62699;50.534;12.784;2023-12-22T22:33:30;94412.88;;;1.23
73894;BMP280;62699;50.534;12.784;2023-12-22T22:38:30;94406.84;;;1.23
73894;BMP280;62699;50.534;12.784;2023-12-22T22:43:31;94415.53;;;1.23
73894;BMP280;62699;50.534;12.784;2023-12-22T22:48:32;94455.78;;;1.22
73894;BMP280;62699;50.534;12.784;2023-12-22T22:53:32;94492.34;;;1.18
73894;BMP280;62699;50.534;12.784;2023-12-22T22:58:32;94460.03;;;1.13
73894;BMP280;62699;50.534;12.784;2023-12-22T23:03:32;94456.19;;;1.15
73894;BMP280;62699;50.534;12.784;2023-12-22T23:08:33;94477.44;;;1.20
73894;BMP280;62699;50.534;12.784;2023-12-22T23:13:33;94470.72;;;1.25
73894;BMP280;62699;50.534;12.784;2023-12-22T23:18:35;94476.06;;;1.36
73894;BMP280;62699;50.534;12.784;2023-12-22T23:23:35;94482.84;;;1.74
73894;BMP280;62699;50.534;12.784;2023-12-22T23:28:35;94495.28;;;2.05
73894;BMP280;62699;50.534;12.784;2023-12-22T23:33:36;94525.00;;;2.14
73894;BMP280;62699;50.534;12.784;2023-12-22T23:38:36;94503.13;;;2.36
73894;BMP280;62699;50.534;12.784;2023-12-22T23:43:36;94490.59;;;2.37
73894;BMP280;62699;50.534;12.784;2023-12-22T23:48:36;94490.41;;;2.57
73894;BMP280;62699;50.534;12.784;2023-12-22T23:53:36;94477.66;;;2.78
73894;BMP280;62699;50.534;12.784;2023-12-22T23:58:37;94491.44;;;2.87
